createdAt,value
2022-08-03T00:01:05.912Z,101169.06
2022-08-03T00:03:36.708Z,101146.59
2022-08-03T00:06:06.950Z,101125.31
2022-08-03T00:08:37.640Z,101133.31
2022-08-03T00:11:10.288Z,101142.38
2022-08-03T00:13:40.809Z,101155.03
2022-08-03T00:16:12.580Z,101167.59
2022-08-03T00:18:46.837Z,101158.63
2022-08-03T00:21:16.876Z,101156.69
2022-08-03T00:23:52.274Z,101157.81
2022-08-03T00:26:24.627Z,101149.59
2022-08-03T00:28:54.727Z,101163.03
2022-08-03T00:31:40.222Z,101146.00
2022-08-03T00:34:15.502Z,101133.44
2022-08-03T00:36:46.122Z,101122.88
2022-08-03T00:39:16.233Z,101125.75
2022-08-03T00:41:49.612Z,101121.81
2022-08-03T00:44:19.795Z,101112.00
2022-08-03T00:46:49.592Z,101127.56
2022-08-03T00:49:20.188Z,101120.09
2022-08-03T00:51:50.352Z,101119.00
2022-08-03T00:54:21.810Z,101123.28
2022-08-03T00:56:59.815Z,101105.88
2022-08-03T00:59:32.437Z,101097.50
2022-08-03T01:02:03.480Z,101101.00
2022-08-03T01:04:36.953Z,101087.25
2022-08-03T01:07:27.751Z,101086.44
2022-08-03T01:10:06.557Z,101105.19
2022-08-03T01:12:42.593Z,101114.63
2022-08-03T01:15:40.303Z,101127.03
2022-08-03T01:18:34.722Z,101110.50
2022-08-03T01:21:14.412Z,101098.16
2022-08-03T01:24:16.086Z,101100.28
2022-08-03T01:27:08.771Z,101095.44
2022-08-03T01:30:00.172Z,101095.94
2022-08-03T01:32:59.042Z,101135.50
2022-08-03T01:36:04.713Z,101163.34
2022-08-03T01:38:43.325Z,101159.09
2022-08-03T01:41:24.118Z,101151.31
2022-08-03T01:44:29.499Z,101153.53
2022-08-03T01:46:50.262Z,101139.78
2022-08-03T01:49:20.989Z,101132.28
2022-08-03T01:52:03.197Z,101125.16
2022-08-03T01:54:39.170Z,101136.44
2022-08-03T01:57:10.243Z,101103.78
2022-08-03T01:59:41.918Z,101104.50
2022-08-03T02:02:27.972Z,101117.09
2022-08-03T02:04:58.906Z,101110.44
2022-08-03T02:07:31.773Z,101096.00
2022-08-03T02:10:04.215Z,101078.78
2022-08-03T02:12:35.859Z,101055.94
2022-08-03T02:15:07.275Z,101033.66
2022-08-03T02:17:39.779Z,101017.75
2022-08-03T02:20:13.414Z,101025.66
2022-08-03T02:22:45.921Z,101015.31
2022-08-03T02:25:17.981Z,101039.78
2022-08-03T02:28:01.585Z,101041.31
2022-08-03T02:30:42.817Z,101037.34
2022-08-03T02:33:26.389Z,101035.78
2022-08-03T02:35:59.038Z,101022.72
2022-08-03T02:38:34.735Z,100990.81
2022-08-03T02:41:10.535Z,100995.75
2022-08-03T02:44:06.333Z,101010.91
2022-08-03T02:46:39.714Z,101012.63
2022-08-03T02:49:42.065Z,100992.94
2022-08-03T02:52:05.381Z,100964.47
2022-08-03T02:54:40.217Z,100983.34
2022-08-03T02:57:12.912Z,100986.34
2022-08-03T02:59:45.336Z,100980.16
2022-08-03T03:02:18.795Z,100972.56
2022-08-03T03:05:52.448Z,100959.13
2022-08-03T03:07:52.071Z,100957.72
2022-08-03T03:10:27.921Z,100950.34
2022-08-03T03:12:59.587Z,100940.69
2022-08-03T03:15:32.814Z,100937.53
2022-08-03T03:18:04.851Z,100938.88
2022-08-03T03:20:36.930Z,100936.09
2022-08-03T03:23:07.643Z,100938.53
2022-08-03T03:25:39.035Z,100936.88
2022-08-03T03:28:09.211Z,100943.63
2022-08-03T03:30:40.120Z,100958.47
2022-08-03T03:33:10.246Z,100953.97
2022-08-03T03:35:43.469Z,100955.97
2022-08-03T03:38:13.836Z,100962.81
2022-08-03T03:40:44.551Z,100967.81
2022-08-03T03:43:14.946Z,100980.16
2022-08-03T03:45:45.808Z,100978.88
2022-08-03T03:48:15.997Z,100980.88
2022-08-03T03:50:46.762Z,100987.13
2022-08-03T03:53:19.717Z,101014.59
2022-08-03T03:55:59.762Z,101035.94
2022-08-03T03:58:34.856Z,101050.56
2022-08-03T04:01:05.314Z,101053.91
2022-08-03T04:03:37.677Z,101033.44
2022-08-03T04:06:27.426Z,101036.88
2022-08-03T04:09:15.858Z,101071.41
2022-08-03T04:12:00.262Z,101063.03
2022-08-03T04:14:37.454Z,101048.25
2022-08-03T04:17:11.171Z,101037.13
2022-08-03T04:19:51.468Z,101040.72
2022-08-03T04:22:25.711Z,101050.25
2022-08-03T04:25:09.474Z,101060.28
2022-08-03T04:27:43.070Z,101042.81
2022-08-03T04:30:14.202Z,101024.78
2022-08-03T04:32:48.428Z,101042.69
2022-08-03T04:35:20.301Z,101040.25
2022-08-03T04:37:53.693Z,101049.56
2022-08-03T04:40:43.115Z,101052.47
2022-08-03T04:43:16.291Z,101053.06
2022-08-03T04:45:49.672Z,101059.47
2022-08-03T04:48:21.550Z,101051.72
2022-08-03T04:50:51.753Z,101048.56
2022-08-03T04:53:22.731Z,101048.16
2022-08-03T04:55:53.277Z,101048.84
2022-08-03T04:58:23.687Z,101056.63
2022-08-03T05:00:53.291Z,101044.28
2022-08-03T05:03:25.026Z,101052.91
2022-08-03T05:06:01.730Z,101056.66
2022-08-03T05:08:46.362Z,101051.22
2022-08-03T05:11:18.085Z,101044.06
2022-08-03T05:13:50.042Z,101031.41
2022-08-03T05:16:22.785Z,101031.25
2022-08-03T05:18:56.145Z,101007.53
2022-08-03T05:21:26.173Z,100979.31
2022-08-03T05:24:16.315Z,100973.22
2022-08-03T05:26:46.092Z,100961.81
2022-08-03T05:29:16.079Z,100950.69
2022-08-03T05:31:46.491Z,100944.81
2022-08-03T05:34:16.509Z,100952.28
2022-08-03T05:36:46.931Z,100961.69
2022-08-03T05:39:16.901Z,100975.84
2022-08-03T05:41:47.431Z,100969.31
2022-08-03T05:44:17.479Z,100947.03
2022-08-03T05:46:48.000Z,100927.44
2022-08-03T05:49:18.131Z,100945.53
2022-08-03T05:51:48.851Z,100944.66
2022-08-03T05:54:55.834Z,100948.00
2022-08-03T05:57:20.965Z,100948.38
2022-08-03T05:59:57.851Z,100947.09
2022-08-03T06:02:29.662Z,100946.00
2022-08-03T06:05:00.438Z,100950.44
2022-08-03T06:07:31.209Z,100954.06
2022-08-03T06:10:35.713Z,100949.69
2022-08-03T06:12:53.870Z,100948.03
2022-08-03T06:15:24.487Z,100948.72
2022-08-03T06:17:55.865Z,100941.94
2022-08-03T06:20:29.193Z,100937.91
2022-08-03T06:23:01.011Z,100938.41
2022-08-03T06:25:32.263Z,100933.09
2022-08-03T06:28:02.490Z,100942.59
2022-08-03T06:30:33.115Z,100945.13
2022-08-03T06:33:02.904Z,100927.69
2022-08-03T06:35:33.379Z,100939.25
2022-08-03T06:38:05.331Z,100947.25
2022-08-03T06:40:41.145Z,100938.41
2022-08-03T06:43:12.511Z,100941.81
2022-08-03T06:45:43.994Z,100940.94
2022-08-03T06:48:17.861Z,100946.75
2022-08-03T06:50:48.409Z,100938.81
2022-08-03T06:53:19.246Z,100942.72
2022-08-03T06:55:54.657Z,100943.53
2022-08-03T06:58:27.629Z,100941.47
2022-08-03T07:00:58.194Z,100955.06
2022-08-03T07:03:29.007Z,100957.50
2022-08-03T07:05:59.631Z,100964.03
2022-08-03T07:08:34.049Z,100971.69
2022-08-03T07:11:05.685Z,100977.56
2022-08-03T07:13:35.886Z,100982.69
2022-08-03T07:16:05.949Z,100975.88
2022-08-03T07:18:40.327Z,100974.56
2022-08-03T07:21:12.059Z,100971.22
2022-08-03T07:23:42.572Z,100976.44
2022-08-03T07:26:12.790Z,100970.28
2022-08-03T07:28:43.299Z,100986.81
2022-08-03T07:31:13.486Z,100995.38
2022-08-03T07:33:44.040Z,101000.88
2022-08-03T07:36:13.636Z,101003.09
2022-08-03T07:38:43.397Z,100982.31
2022-08-03T07:41:13.898Z,100985.78
2022-08-03T07:43:43.482Z,100983.81
2022-08-03T07:46:13.273Z,100988.69
2022-08-03T07:48:43.960Z,100992.00
2022-08-03T07:51:13.976Z,100996.03
2022-08-03T07:53:47.339Z,100998.75
2022-08-03T07:56:18.166Z,100964.44
2022-08-03T07:58:48.683Z,100987.25
2022-08-03T08:01:20.563Z,101000.91
2022-08-03T08:03:52.660Z,101004.19
2022-08-03T08:06:23.788Z,100999.19
2022-08-03T08:08:54.934Z,101000.44
2022-08-03T08:11:24.962Z,100992.06
2022-08-03T08:13:55.503Z,100995.91
2022-08-03T08:16:25.580Z,101000.44
2022-08-03T08:18:56.123Z,101015.19
2022-08-03T08:21:26.379Z,101016.47
2022-08-03T08:24:18.295Z,101014.53
2022-08-03T08:26:49.782Z,101015.34
2022-08-03T08:29:24.173Z,101013.56
2022-08-03T08:31:54.696Z,101019.69
2022-08-03T08:34:24.418Z,101010.19
2022-08-03T08:36:54.194Z,101013.56
2022-08-03T08:39:24.757Z,101017.25
2022-08-03T08:41:54.432Z,101015.19
2022-08-03T08:44:24.160Z,101009.66
2022-08-03T08:46:56.977Z,101020.19
2022-08-03T08:49:29.612Z,101023.47
2022-08-03T08:52:01.643Z,101023.56
2022-08-03T08:54:34.409Z,101024.53
2022-08-03T08:57:16.472Z,101012.69
2022-08-03T08:59:58.256Z,101009.59
2022-08-03T09:02:32.143Z,101010.69
2022-08-03T09:05:07.325Z,101005.31
2022-08-03T09:07:38.557Z,101007.25
2022-08-03T09:10:13.058Z,101021.00
2022-08-03T09:12:46.531Z,101018.63
2022-08-03T09:15:26.536Z,101034.97
2022-08-03T09:17:58.978Z,101026.88
2022-08-03T09:20:34.968Z,101035.13
2022-08-03T09:23:44.987Z,101031.66
2022-08-03T09:26:02.733Z,101019.38
2022-08-03T09:29:01.605Z,101026.72
2022-08-03T09:31:43.565Z,101024.75
2022-08-03T09:34:19.642Z,101022.88
2022-08-03T09:36:52.045Z,101009.91
2022-08-03T09:39:41.100Z,101027.25
2022-08-03T09:42:23.862Z,101019.53
2022-08-03T09:44:55.189Z,101012.97
2022-08-03T09:47:33.250Z,101002.75
2022-08-03T09:50:13.481Z,101007.09
2022-08-03T09:52:52.154Z,101004.59
2022-08-03T09:56:35.490Z,101015.53
2022-08-03T09:58:15.438Z,101018.19
2022-08-03T10:00:58.211Z,101018.09
2022-08-03T10:04:03.106Z,101015.19
2022-08-03T10:06:29.034Z,101009.56
2022-08-03T10:09:14.139Z,101009.41
2022-08-03T10:11:48.043Z,101005.66
2022-08-03T10:14:22.130Z,100999.91
2022-08-03T10:16:52.768Z,101009.28
2022-08-03T10:19:22.918Z,101004.69
2022-08-03T10:21:59.307Z,100994.25
2022-08-03T10:24:31.802Z,100993.31
2022-08-03T10:27:05.563Z,100996.22
2022-08-03T10:29:40.412Z,100990.34
2022-08-03T10:32:42.218Z,100984.94
2022-08-03T10:35:21.085Z,100989.50
2022-08-03T10:37:58.777Z,100984.19
2022-08-03T10:40:49.503Z,100994.81
2022-08-03T10:43:29.017Z,100987.66
2022-08-03T10:46:00.321Z,100990.22
2022-08-03T10:48:31.726Z,101000.84
2022-08-03T10:51:01.933Z,101005.56
2022-08-03T10:53:39.745Z,101006.41
2022-08-03T10:56:54.374Z,101012.47
2022-08-03T10:59:50.658Z,101000.94
2022-08-03T11:02:20.790Z,100987.78
2022-08-03T11:05:33.037Z,100998.22
2022-08-03T11:08:21.985Z,101002.44
2022-08-03T11:10:54.831Z,101013.72
2022-08-03T11:13:27.334Z,101023.09
2022-08-03T11:16:02.399Z,101016.44
2022-08-03T11:18:33.953Z,101017.41
2022-08-03T11:21:04.127Z,101003.63
2022-08-03T11:24:04.914Z,101009.19
2022-08-03T11:26:36.721Z,101009.06
2022-08-03T11:29:32.334Z,101004.16
2022-08-03T11:32:02.459Z,101002.81
2022-08-03T11:34:32.969Z,101022.00
2022-08-03T11:37:31.347Z,101038.47
2022-08-03T11:40:05.195Z,101039.94
2022-08-03T11:42:35.310Z,101045.44
2022-08-03T11:45:10.475Z,101043.41
2022-08-03T11:47:51.055Z,101035.88
2022-08-03T11:50:24.082Z,101036.94
2022-08-03T11:52:54.383Z,101043.03
2022-08-03T11:55:28.980Z,101037.59
2022-08-03T11:59:15.212Z,101034.13
2022-08-03T12:00:54.574Z,101038.06
2022-08-03T12:03:25.001Z,101048.66
2022-08-03T12:05:56.381Z,101041.78
2022-08-03T12:08:29.270Z,101038.53
2022-08-03T12:11:02.092Z,101045.25
2022-08-03T12:14:45.351Z,101042.75
2022-08-03T12:16:49.903Z,101048.34
2022-08-03T12:19:20.030Z,101044.75
2022-08-03T12:21:57.281Z,101048.25
2022-08-03T12:24:30.745Z,101041.03
2022-08-03T12:27:01.223Z,101042.09
2022-08-03T12:29:31.298Z,101041.41
2022-08-03T12:32:02.467Z,101043.69
2022-08-03T12:34:51.793Z,101042.09
2022-08-03T12:37:25.950Z,101037.66
2022-08-03T12:40:03.513Z,101050.25
2022-08-03T12:42:38.558Z,101041.84
2022-08-03T12:45:29.274Z,101051.63
2022-08-03T12:48:03.594Z,101059.44
2022-08-03T12:50:38.166Z,101057.84
2022-08-03T12:53:10.956Z,101075.69
2022-08-03T12:55:57.630Z,101072.16
2022-08-03T12:58:37.777Z,101075.69
2022-08-03T13:01:10.755Z,101063.78
2022-08-03T13:03:49.808Z,101058.56
2022-08-03T13:06:25.847Z,101056.56
2022-08-03T13:09:08.364Z,101048.69
2022-08-03T13:11:55.900Z,101052.41
2022-08-03T13:14:29.725Z,101046.53
2022-08-03T13:17:01.027Z,101048.28
2022-08-03T13:19:33.179Z,101042.63
2022-08-03T13:22:11.911Z,101042.56
2022-08-03T13:24:43.969Z,101040.56
2022-08-03T13:28:01.838Z,101046.38
2022-08-03T13:30:06.736Z,101041.25
2022-08-03T13:32:37.362Z,101029.91
2022-08-03T13:35:09.906Z,101033.97
2022-08-03T13:37:40.554Z,101027.00
2022-08-03T13:40:11.880Z,101029.22
2022-08-03T13:42:45.212Z,101022.78
2022-08-03T13:45:15.860Z,101008.00
2022-08-03T13:47:45.876Z,101005.34
2022-08-03T13:50:16.539Z,100999.06
2022-08-03T13:52:49.754Z,100983.75
2022-08-03T13:55:20.547Z,100976.19
2022-08-03T13:58:03.676Z,100972.97
2022-08-03T14:00:37.847Z,100967.25
2022-08-03T14:03:15.457Z,100960.34
2022-08-03T14:05:46.259Z,100970.31
2022-08-03T14:08:16.513Z,100958.66
2022-08-03T14:10:48.060Z,100962.31
2022-08-03T14:13:18.734Z,100949.34
2022-08-03T14:15:50.981Z,100943.84
2022-08-03T14:18:29.013Z,100942.47
2022-08-03T14:21:07.515Z,100930.00
2022-08-03T14:23:41.334Z,100934.63
2022-08-03T14:26:13.192Z,100919.28
2022-08-03T14:28:43.675Z,100927.97
2022-08-03T14:31:15.517Z,100926.44
2022-08-03T14:34:04.918Z,100918.75
2022-08-03T14:36:35.632Z,100926.50
2022-08-03T14:39:06.576Z,100910.38
2022-08-03T14:41:37.269Z,100910.31
2022-08-03T14:44:07.670Z,100900.38
2022-08-03T14:46:38.367Z,100902.81
2022-08-03T14:50:33.074Z,100891.13
2022-08-03T14:51:59.269Z,100898.78
2022-08-03T14:54:32.131Z,100890.06
2022-08-03T14:57:02.866Z,100883.50
2022-08-03T14:59:55.776Z,100889.84
2022-08-03T15:02:24.199Z,100895.34
2022-08-03T15:04:54.867Z,100876.81
2022-08-03T15:07:25.717Z,100856.56
2022-08-03T15:09:56.024Z,100853.53
2022-08-03T15:12:26.957Z,100854.50
2022-08-03T15:14:57.622Z,100843.22
2022-08-03T15:17:28.482Z,100839.56
2022-08-03T15:20:00.217Z,100826.13
2022-08-03T15:22:36.632Z,100812.34
2022-08-03T15:26:03.645Z,100802.09
2022-08-03T15:28:04.318Z,100802.53
2022-08-03T15:30:38.268Z,100797.97
2022-08-03T15:33:09.207Z,100793.75
2022-08-03T15:35:39.502Z,100783.22
2022-08-03T15:38:10.143Z,100776.34
2022-08-03T15:40:40.696Z,100758.91
2022-08-03T15:43:11.370Z,100753.84
2022-08-03T15:45:42.693Z,100746.06
2022-08-03T15:48:13.421Z,100734.84
2022-08-03T15:50:44.703Z,100736.91
2022-08-03T15:53:15.226Z,100720.88
2022-08-03T15:55:45.415Z,100719.91
2022-08-03T15:59:03.875Z,100707.91
2022-08-03T16:01:08.584Z,100702.50
2022-08-03T16:03:39.500Z,100699.34
2022-08-03T16:06:09.879Z,100683.22
2022-08-03T16:08:40.422Z,100673.81
2022-08-03T16:11:11.448Z,100658.00
2022-08-03T16:14:13.326Z,100656.09
2022-08-03T16:16:32.360Z,100650.53
2022-08-03T16:19:05.481Z,100634.03
2022-08-03T16:21:48.368Z,100638.31
2022-08-03T16:24:25.883Z,100621.66
2022-08-03T16:27:00.527Z,100612.41
2022-08-03T16:29:31.538Z,100615.72
2022-08-03T16:32:09.497Z,100615.19
2022-08-03T16:34:41.048Z,100602.69
2022-08-03T16:37:36.934Z,100590.88
2022-08-03T16:40:02.353Z,100575.78
2022-08-03T16:42:32.567Z,100573.66
2022-08-03T16:45:03.562Z,100564.84
2022-08-03T16:47:34.131Z,100559.06
2022-08-03T16:50:11.957Z,100534.47
2022-08-03T16:52:47.264Z,100526.50
2022-08-03T16:55:43.367Z,100517.19
2022-08-03T16:58:09.048Z,100514.63
2022-08-03T17:00:44.191Z,100502.97
2022-08-03T17:03:25.550Z,100492.44
2022-08-03T17:06:02.011Z,100495.97
2022-08-03T17:08:33.503Z,100498.91
2022-08-03T17:11:04.139Z,100485.66
2022-08-03T17:13:39.947Z,100482.91
2022-08-03T17:16:15.438Z,100482.50
2022-08-03T17:18:57.753Z,100467.22
2022-08-03T17:21:34.617Z,100467.78
2022-08-03T17:24:12.173Z,100467.16
2022-08-03T17:26:49.904Z,100463.84
2022-08-03T17:29:22.976Z,100455.59
2022-08-03T17:32:07.872Z,100458.16
2022-08-03T17:34:44.439Z,100446.44
2022-08-03T17:37:27.394Z,100448.28
2022-08-03T17:40:08.786Z,100442.25
2022-08-03T17:42:41.228Z,100436.41
2022-08-03T17:45:15.649Z,100434.31
2022-08-03T17:47:57.493Z,100445.59
2022-08-03T17:50:41.998Z,100444.94
2022-08-03T17:53:24.522Z,100435.75
2022-08-03T17:56:42.371Z,100430.88
2022-08-03T17:59:51.576Z,100426.47
2022-08-03T18:03:17.614Z,100423.94
2022-08-03T18:06:11.163Z,100420.22
2022-08-03T18:08:58.047Z,100418.75
2022-08-03T18:11:38.830Z,100415.75
2022-08-03T18:14:21.003Z,100414.50
2022-08-03T18:17:06.426Z,100422.97
2022-08-03T18:20:02.184Z,100423.97
2022-08-03T18:22:36.056Z,100418.53
2022-08-03T18:25:08.005Z,100415.41
2022-08-03T18:27:42.702Z,100400.00
2022-08-03T18:30:16.842Z,100402.13
2022-08-03T18:33:00.960Z,100391.69
2022-08-03T18:38:23.827Z,100385.59
2022-08-03T18:40:55.120Z,100384.84
2022-08-03T18:43:47.286Z,100385.69
2022-08-03T18:46:36.746Z,100374.94
2022-08-03T18:49:23.806Z,100380.25
2022-08-03T18:52:28.881Z,100367.91
2022-08-03T18:55:20.287Z,100371.69
2022-08-03T18:58:02.084Z,100356.31
2022-08-03T19:00:54.009Z,100367.47
2022-08-03T19:03:41.423Z,100359.22
2022-08-03T19:06:20.874Z,100352.66
2022-08-03T19:09:01.383Z,100352.06
2022-08-03T19:12:12.364Z,100350.06
2022-08-03T19:14:54.927Z,100354.38
2022-08-03T19:17:32.845Z,100356.44
2022-08-03T19:20:07.239Z,100351.56
2022-08-03T19:22:45.898Z,100357.59
2022-08-03T19:25:18.145Z,100356.81
2022-08-03T19:27:49.224Z,100347.72
2022-08-03T19:30:39.519Z,100345.94
2022-08-03T19:33:12.487Z,100339.84
2022-08-03T19:35:55.129Z,100351.63
2022-08-03T19:38:29.857Z,100340.19
2022-08-03T19:41:04.016Z,100329.75
2022-08-03T19:46:35.324Z,100328.78
2022-08-03T19:49:16.651Z,100332.09
2022-08-03T19:52:01.713Z,100329.66
2022-08-03T19:54:53.356Z,100327.00
2022-08-03T19:57:30.358Z,100330.09
2022-08-03T20:00:03.547Z,100325.97
2022-08-03T20:02:35.692Z,100327.75
2022-08-03T20:05:06.271Z,100332.84
2022-08-03T20:07:48.595Z,100320.00
2022-08-03T20:10:20.138Z,100320.00
2022-08-03T20:12:51.077Z,100316.31
2022-08-03T20:15:22.487Z,100319.78
2022-08-03T20:18:02.438Z,100319.31
2022-08-03T20:20:35.934Z,100322.22
2022-08-03T20:23:15.475Z,100333.72
2022-08-03T20:28:51.495Z,100322.50
2022-08-03T20:31:32.448Z,100325.38
2022-08-03T20:34:09.190Z,100311.69
2022-08-03T20:36:40.421Z,100321.13
2022-08-03T20:39:15.178Z,100325.56
2022-08-03T20:41:45.572Z,100329.34
2022-08-03T20:44:17.151Z,100325.16
2022-08-03T20:46:53.178Z,100321.09
2022-08-03T20:49:28.506Z,100308.31
2022-08-03T20:52:01.698Z,100310.59
2022-08-03T20:54:33.316Z,100306.03
2022-08-03T20:57:09.379Z,100312.84
2022-08-03T20:59:50.770Z,100310.75
2022-08-03T21:02:29.563Z,100318.69
2022-08-03T21:08:05.854Z,100318.28
2022-08-03T21:10:42.142Z,100309.38
2022-08-03T21:13:02.803Z,100325.72
2022-08-03T21:13:04.191Z,100391.66
2022-08-03T21:13:07.970Z,100316.88
2022-08-03T21:13:13.662Z,100326.19
2022-08-03T21:13:25.008Z,100299.97
2022-08-03T21:16:12.687Z,100303.16
2022-08-03T21:18:51.377Z,100298.44
2022-08-03T21:21:25.170Z,100300.25
2022-08-03T21:23:56.516Z,100302.69
2022-08-03T21:26:28.111Z,100302.91
2022-08-03T21:28:58.534Z,100292.31
2022-08-03T21:31:29.082Z,100291.31
2022-08-03T21:34:02.925Z,100301.44
2022-08-03T21:36:36.384Z,100303.94
2022-08-03T21:39:09.763Z,100297.53
2022-08-03T21:41:41.904Z,100307.13
2022-08-03T21:44:12.312Z,100306.44
2022-08-03T21:46:44.035Z,100315.72
2022-08-03T21:50:05.315Z,100300.38
2022-08-03T21:52:08.702Z,100293.91
2022-08-03T21:54:45.160Z,100299.50
2022-08-03T21:57:24.838Z,100299.59
2022-08-03T22:00:03.745Z,100299.22
2022-08-03T22:02:51.686Z,100303.84
2022-08-03T22:05:28.996Z,100306.16
2022-08-03T22:08:16.692Z,100300.41
2022-08-03T22:10:46.894Z,100303.56
2022-08-03T22:13:43.113Z,100302.97
2022-08-03T22:16:10.374Z,100308.34
2022-08-03T22:18:43.026Z,100301.56
2022-08-03T22:21:15.354Z,100290.59
2022-08-03T22:23:55.076Z,100297.78
2022-08-03T22:26:35.610Z,100289.56
2022-08-03T22:29:09.728Z,100278.13
2022-08-03T22:31:58.513Z,100285.91
2022-08-03T22:34:30.997Z,100280.25
2022-08-03T22:37:04.512Z,100287.34
2022-08-03T22:39:36.732Z,100285.03
2022-08-03T22:42:07.902Z,100277.34
2022-08-03T22:44:38.692Z,100279.94
2022-08-03T22:47:10.876Z,100292.19
2022-08-03T22:49:44.683Z,100273.75
2022-08-03T22:52:16.421Z,100263.59
2022-08-03T22:54:48.747Z,100264.94
2022-08-03T22:57:19.105Z,100265.22
2022-08-03T22:59:51.770Z,100268.63
2022-08-03T23:02:24.275Z,100271.22
2022-08-03T23:04:57.970Z,100277.84
2022-08-03T23:07:41.955Z,100261.47
2022-08-03T23:10:16.210Z,100272.97
2022-08-03T23:12:49.646Z,100266.22
2022-08-03T23:15:20.224Z,100268.09
2022-08-03T23:17:57.334Z,100273.72
2022-08-03T23:20:30.079Z,100264.47
2022-08-03T23:23:01.251Z,100275.03
2022-08-03T23:25:33.020Z,100270.31
2022-08-03T23:28:05.903Z,100263.22
2022-08-03T23:30:39.659Z,100263.44
2022-08-03T23:33:14.985Z,100256.50
2022-08-03T23:36:29.698Z,100257.16
2022-08-03T23:38:54.277Z,100260.03
2022-08-03T23:41:25.346Z,100258.13
2022-08-03T23:43:55.913Z,100256.69
2022-08-03T23:46:28.901Z,100251.06
2022-08-03T23:49:02.295Z,100245.09
2022-08-03T23:51:50.159Z,100234.81
2022-08-03T23:54:35.843Z,100240.59
2022-08-03T23:57:31.874Z,100235.78
